Country
Station

 

Weather  for  Dallas, Dallas Love Field  -  United States    United States

  
22 °C (72 °F)
    
 
 

Current METAR for Dallas, Dallas Love Field is :

KDAL 192053Z 03012G18KT 10SM FEW250 SCT300 22/01 A3029 RMK AO2 SLP252 T02220011 58026

 

This is a report for Dallas, Dallas Love Field - United States.
 
The report was made 36 minutes ago, at 20:53 UTC .
The wind was blowing at a speed of 6.2 meters per second (13.8 miles per hour) with gusts up to 9.3 meters per second (20.7 miles per hour) from north/northeast (030°).
 
The temperature was 22 °C (72 °F), with a dew-point at 1 °C (34 °F).
The temperature felt like 24 °C (76 °F).
 
The atmospheric pressure was 1026 hPa (30.29 inHg).
The relative humidity was 24.8%.
 
There were a few clouds at a height of 7620 meters (25000 feet) and scattered clouds at a height of 9144 meters (30000 feet).
 
The overall visibility was 16.1 kilometers (10.0 miles).
 

 
 
 
 

Country :   A   B   C   D   E   F   G   H   I   J   K   L   M   N   O   P   Q   R   S   T   U   V   W   Y   Z

 

Site Info  |  Disclaimer  |  Credits  |  Privacy
Contact us  |  Add to favorites
© 2013-2018 METARs - All rights reserved